sensor_id;sensor_type;location;lat;lon;timestamp;temperature;humidity
49549;DHT22;35450;44.518;7.466;2022-08-21T00:02:26;24.10;67.50
49549;DHT22;35450;44.518;7.466;2022-08-21T00:05:31;24.00;67.90
49549;DHT22;35450;44.518;7.466;2022-08-21T00:08:35;24.00;68.20
49549;DHT22;35450;44.518;7.466;2022-08-21T00:11:39;24.00;67.60
49549;DHT22;35450;44.518;7.466;2022-08-21T00:14:43;23.80;69.90
49549;DHT22;35450;44.518;7.466;2022-08-21T00:17:48;23.70;69.80
49549;DHT22;35450;44.518;7.466;2022-08-21T00:20:52;23.70;69.60
49549;DHT22;35450;44.518;7.466;2022-08-21T00:23:56;23.70;69.50
49549;DHT22;35450;44.518;7.466;2022-08-21T00:27:00;23.50;70.20
49549;DHT22;35450;44.518;7.466;2022-08-21T00:30:06;23.50;68.50
49549;DHT22;35450;44.518;7.466;2022-08-21T00:33:11;23.50;67.30
49549;DHT22;35450;44.518;7.466;2022-08-21T00:36:15;23.50;67.10
49549;DHT22;35450;44.518;7.466;2022-08-21T00:39:19;23.60;66.90
49549;DHT22;35450;44.518;7.466;2022-08-21T00:42:23;23.60;66.70
49549;DHT22;35450;44.518;7.466;2022-08-21T00:45:27;23.60;66.90
49549;DHT22;35450;44.518;7.466;2022-08-21T00:48:32;23.60;67.50
49549;DHT22;35450;44.518;7.466;2022-08-21T00:51:50;23.50;68.60
49549;DHT22;35450;44.518;7.466;2022-08-21T00:54:57;23.40;69.00
49549;DHT22;35450;44.518;7.466;2022-08-21T00:58:04;23.50;67.30
49549;DHT22;35450;44.518;7.466;2022-08-21T01:01:09;23.40;68.90
49549;DHT22;35450;44.518;7.466;2022-08-21T01:04:13;23.30;70.40
49549;DHT22;35450;44.518;7.466;2022-08-21T01:07:18;23.20;70.40
49549;DHT22;35450;44.518;7.466;2022-08-21T01:10:24;23.10;70.10
49549;DHT22;35450;44.518;7.466;2022-08-21T01:13:30;23.10;70.40
49549;DHT22;35450;44.518;7.466;2022-08-21T01:16:34;23.00;71.00
49549;DHT22;35450;44.518;7.466;2022-08-21T01:19:39;22.80;71.80
49549;DHT22;35450;44.518;7.466;2022-08-21T01:22:43;22.70;71.70
49549;DHT22;35450;44.518;7.466;2022-08-21T01:25:47;22.70;71.80
49549;DHT22;35450;44.518;7.466;2022-08-21T01:29:01;22.80;72.30
49549;DHT22;35450;44.518;7.466;2022-08-21T01:32:09;22.70;72.30
49549;DHT22;35450;44.518;7.466;2022-08-21T01:35:15;22.70;73.10
49549;DHT22;35450;44.518;7.466;2022-08-21T01:38:19;22.70;72.40
49549;DHT22;35450;44.518;7.466;2022-08-21T01:41:24;22.60;71.60
49549;DHT22;35450;44.518;7.466;2022-08-21T01:44:28;22.60;71.60
49549;DHT22;35450;44.518;7.466;2022-08-21T01:47:31;22.70;71.60
49549;DHT22;35450;44.518;7.466;2022-08-21T01:50:36;22.60;72.80
49549;DHT22;35450;44.518;7.466;2022-08-21T01:53:40;22.60;72.80
49549;DHT22;35450;44.518;7.466;2022-08-21T01:56:47;22.50;72.40
49549;DHT22;35450;44.518;7.466;2022-08-21T01:59:53;22.60;71.30
49549;DHT22;35450;44.518;7.466;2022-08-21T02:02:58;22.60;70.90
49549;DHT22;35450;44.518;7.466;2022-08-21T02:06:03;22.80;70.40
49549;DHT22;35450;44.518;7.466;2022-08-21T02:09:10;22.60;72.60
49549;DHT22;35450;44.518;7.466;2022-08-21T02:12:14;22.60;72.40
49549;DHT22;35450;44.518;7.466;2022-08-21T02:15:18;22.60;72.70
49549;DHT22;35450;44.518;7.466;2022-08-21T02:18:22;22.60;71.10
49549;DHT22;35450;44.518;7.466;2022-08-21T02:21:27;22.70;71.00
49549;DHT22;35450;44.518;7.466;2022-08-21T02:24:31;22.60;71.30
49549;DHT22;35450;44.518;7.466;2022-08-21T02:27:41;22.70;71.30
49549;DHT22;35450;44.518;7.466;2022-08-21T02:30:47;22.60;71.70
49549;DHT22;35450;44.518;7.466;2022-08-21T02:33:52;22.60;71.10
49549;DHT22;35450;44.518;7.466;2022-08-21T02:36:55;22.70;70.70
49549;DHT22;35450;44.518;7.466;2022-08-21T02:40:00;22.70;70.70
49549;DHT22;35450;44.518;7.466;2022-08-21T02:43:05;22.80;70.90
49549;DHT22;35450;44.518;7.466;2022-08-21T02:46:12;22.80;69.80
49549;DHT22;35450;44.518;7.466;2022-08-21T02:49:16;22.90;69.30
49549;DHT22;35450;44.518;7.466;2022-08-21T02:52:20;22.90;68.80
49549;DHT22;35450;44.518;7.466;2022-08-21T02:55:27;23.00;68.90
49549;DHT22;35450;44.518;7.466;2022-08-21T02:58:35;23.00;69.50
49549;DHT22;35450;44.518;7.466;2022-08-21T03:01:40;23.10;68.50
49549;DHT22;35450;44.518;7.466;2022-08-21T03:04:44;23.10;69.20
49549;DHT22;35450;44.518;7.466;2022-08-21T03:07:49;23.10;67.90
49549;DHT22;35450;44.518;7.466;2022-08-21T03:10:53;23.20;68.50
49549;DHT22;35450;44.518;7.466;2022-08-21T03:13:57;23.20;69.10
49549;DHT22;35450;44.518;7.466;2022-08-21T03:17:01;23.10;70.30
49549;DHT22;35450;44.518;7.466;2022-08-21T03:20:06;23.10;69.30
49549;DHT22;35450;44.518;7.466;2022-08-21T03:23:11;23.10;68.90
49549;DHT22;35450;44.518;7.466;2022-08-21T03:26:15;23.00;69.60
49549;DHT22;35450;44.518;7.466;2022-08-21T03:29:19;23.10;68.80
49549;DHT22;35450;44.518;7.466;2022-08-21T03:32:23;23.00;69.30
49549;DHT22;35450;44.518;7.466;2022-08-21T03:35:27;23.00;67.20
49549;DHT22;35450;44.518;7.466;2022-08-21T03:38:33;23.00;66.40
49549;DHT22;35450;44.518;7.466;2022-08-21T03:41:38;23.00;64.90
49549;DHT22;35450;44.518;7.466;2022-08-21T03:44:42;23.00;66.20
49549;DHT22;35450;44.518;7.466;2022-08-21T03:47:57;23.00;65.80
49549;DHT22;35450;44.518;7.466;2022-08-21T03:51:02;23.00;66.00
49549;DHT22;35450;44.518;7.466;2022-08-21T03:54:06;22.90;67.20
49549;DHT22;35450;44.518;7.466;2022-08-21T03:57:10;22.90;65.50
49549;DHT22;35450;44.518;7.466;2022-08-21T04:00:16;22.80;65.80
49549;DHT22;35450;44.518;7.466;2022-08-21T04:03:20;22.80;66.40
49549;DHT22;35450;44.518;7.466;2022-08-21T04:06:25;22.90;65.80
49549;DHT22;35450;44.518;7.466;2022-08-21T04:09:29;22.70;68.70
49549;DHT22;35450;44.518;7.466;2022-08-21T04:12:33;22.60;68.30
49549;DHT22;35450;44.518;7.466;2022-08-21T04:15:38;22.60;66.60
49549;DHT22;35450;44.518;7.466;2022-08-21T04:18:42;22.50;66.90
49549;DHT22;35450;44.518;7.466;2022-08-21T04:21:46;22.60;67.80
49549;DHT22;35450;44.518;7.466;2022-08-21T04:24:50;22.50;66.00
49549;DHT22;35450;44.518;7.466;2022-08-21T04:27:54;22.50;65.80
49549;DHT22;35450;44.518;7.466;2022-08-21T04:30:58;22.50;65.40
49549;DHT22;35450;44.518;7.466;2022-08-21T04:34:03;22.40;64.60
49549;DHT22;35450;44.518;7.466;2022-08-21T04:37:08;22.50;64.80
49549;DHT22;35450;44.518;7.466;2022-08-21T04:40:14;22.40;64.80
49549;DHT22;35450;44.518;7.466;2022-08-21T04:43:19;22.40;64.50
49549;DHT22;35450;44.518;7.466;2022-08-21T04:46:24;22.30;64.60
49549;DHT22;35450;44.518;7.466;2022-08-21T04:49:29;22.30;64.90
49549;DHT22;35450;44.518;7.466;2022-08-21T04:52:33;22.40;65.00
49549;DHT22;35450;44.518;7.466;2022-08-21T04:55:37;22.40;65.30
49549;DHT22;35450;44.518;7.466;2022-08-21T04:58:41;22.40;65.50
49549;DHT22;35450;44.518;7.466;2022-08-21T05:01:45;22.40;65.50
49549;DHT22;35450;44.518;7.466;2022-08-21T05:04:52;22.40;65.70
49549;DHT22;35450;44.518;7.466;2022-08-21T05:07:59;22.40;66.40
49549;DHT22;35450;44.518;7.466;2022-08-21T05:11:04;22.50;66.60
49549;DHT22;35450;44.518;7.466;2022-08-21T05:14:10;22.50;66.30
49549;DHT22;35450;44.518;7.466;2022-08-21T05:17:15;22.60;66.50
49549;DHT22;35450;44.518;7.466;2022-08-21T05:20:19;22.60;66.90
49549;DHT22;35450;44.518;7.466;2022-08-21T05:23:23;22.60;67.00
49549;DHT22;35450;44.518;7.466;2022-08-21T05:26:27;22.60;68.90
49549;DHT22;35450;44.518;7.466;2022-08-21T05:29:31;22.60;69.10
49549;DHT22;35450;44.518;7.466;2022-08-21T05:32:35;22.60;67.80
49549;DHT22;35450;44.518;7.466;2022-08-21T05:35:40;22.70;69.80
49549;DHT22;35450;44.518;7.466;2022-08-21T05:38:44;22.70;70.20
49549;DHT22;35450;44.518;7.466;2022-08-21T05:41:48;22.70;70.00
49549;DHT22;35450;44.518;7.466;2022-08-21T05:44:53;22.60;70.60
49549;DHT22;35450;44.518;7.466;2022-08-21T05:47:57;22.60;71.30
49549;DHT22;35450;44.518;7.466;2022-08-21T05:51:10;22.50;71.80
49549;DHT22;35450;44.518;7.466;2022-08-21T05:54:14;22.40;71.80
49549;DHT22;35450;44.518;7.466;2022-08-21T05:57:18;22.30;74.00
49549;DHT22;35450;44.518;7.466;2022-08-21T06:00:22;22.30;73.90
49549;DHT22;35450;44.518;7.466;2022-08-21T06:03:32;22.30;72.80
49549;DHT22;35450;44.518;7.466;2022-08-21T06:06:36;22.30;70.90
49549;DHT22;35450;44.518;7.466;2022-08-21T06:09:40;22.40;72.00
49549;DHT22;35450;44.518;7.466;2022-08-21T06:12:44;22.30;73.00
49549;DHT22;35450;44.518;7.466;2022-08-21T06:15:49;22.30;73.00
49549;DHT22;35450;44.518;7.466;2022-08-21T06:18:53;22.40;72.20
49549;DHT22;35450;44.518;7.466;2022-08-21T06:21:58;22.40;73.00
49549;DHT22;35450;44.518;7.466;2022-08-21T06:25:02;22.60;72.40
49549;DHT22;35450;44.518;7.466;2022-08-21T06:28:08;22.60;72.30
49549;DHT22;35450;44.518;7.466;2022-08-21T06:31:18;22.80;69.20
49549;DHT22;35450;44.518;7.466;2022-08-21T06:34:23;23.00;69.50
49549;DHT22;35450;44.518;7.466;2022-08-21T06:37:27;23.10;69.10
49549;DHT22;35450;44.518;7.466;2022-08-21T06:40:31;23.30;67.50
49549;DHT22;35450;44.518;7.466;2022-08-21T06:43:35;23.40;64.80
49549;DHT22;35450;44.518;7.466;2022-08-21T06:46:39;23.60;65.60
49549;DHT22;35450;44.518;7.466;2022-08-21T06:49:43;23.80;66.50
49549;DHT22;35450;44.518;7.466;2022-08-21T06:52:47;24.00;65.00
49549;DHT22;35450;44.518;7.466;2022-08-21T06:55:51;24.00;65.20
49549;DHT22;35450;44.518;7.466;2022-08-21T06:58:55;24.00;64.80
49549;DHT22;35450;44.518;7.466;2022-08-21T07:01:59;24.10;64.90
49549;DHT22;35450;44.518;7.466;2022-08-21T07:05:04;24.20;65.10
49549;DHT22;35450;44.518;7.466;2022-08-21T07:08:08;24.20;65.00
49549;DHT22;35450;44.518;7.466;2022-08-21T07:11:21;24.20;65.60
49549;DHT22;35450;44.518;7.466;2022-08-21T07:14:25;24.30;66.40
49549;DHT22;35450;44.518;7.466;2022-08-21T07:17:29;24.20;66.10
49549;DHT22;35450;44.518;7.466;2022-08-21T07:20:33;24.20;65.70
49549;DHT22;35450;44.518;7.466;2022-08-21T07:23:45;24.20;65.30
49549;DHT22;35450;44.518;7.466;2022-08-21T07:26:49;24.20;66.00
49549;DHT22;35450;44.518;7.466;2022-08-21T07:29:53;24.10;66.20
49549;DHT22;35450;44.518;7.466;2022-08-21T07:32:57;24.10;65.90
49549;DHT22;35450;44.518;7.466;2022-08-21T07:36:02;24.10;65.90
49549;DHT22;35450;44.518;7.466;2022-08-21T07:39:05;24.00;66.00
49549;DHT22;35450;44.518;7.466;2022-08-21T07:42:09;23.90;65.90
49549;DHT22;35450;44.518;7.466;2022-08-21T07:45:14;24.00;66.50
49549;DHT22;35450;44.518;7.466;2022-08-21T07:48:19;23.90;67.80
49549;DHT22;35450;44.518;7.466;2022-08-21T07:51:27;24.00;67.20
49549;DHT22;35450;44.518;7.466;2022-08-21T07:54:31;24.10;66.90
49549;DHT22;35450;44.518;7.466;2022-08-21T07:57:35;24.10;66.50
49549;DHT22;35450;44.518;7.466;2022-08-21T08:00:40;24.20;67.20
49549;DHT22;35450;44.518;7.466;2022-08-21T08:03:44;24.20;67.40
49549;DHT22;35450;44.518;7.466;2022-08-21T08:06:48;24.30;67.00
49549;DHT22;35450;44.518;7.466;2022-08-21T08:09:52;24.30;66.50
49549;DHT22;35450;44.518;7.466;2022-08-21T08:12:56;24.40;66.20
49549;DHT22;35450;44.518;7.466;2022-08-21T08:16:00;24.40;66.20
49549;DHT22;35450;44.518;7.466;2022-08-21T08:19:04;24.40;66.40
49549;DHT22;35450;44.518;7.466;2022-08-21T08:22:20;24.50;66.10
49549;DHT22;35450;44.518;7.466;2022-08-21T08:25:27;24.50;65.20
49549;DHT22;35450;44.518;7.466;2022-08-21T08:28:32;24.50;65.10
49549;DHT22;35450;44.518;7.466;2022-08-21T08:31:36;24.60;64.90
49549;DHT22;35450;44.518;7.466;2022-08-21T08:34:40;24.60;65.20
49549;DHT22;35450;44.518;7.466;2022-08-21T08:37:44;24.60;64.30
49549;DHT22;35450;44.518;7.466;2022-08-21T08:41:04;24.60;63.90
49549;DHT22;35450;44.518;7.466;2022-08-21T08:44:10;24.70;64.30
49549;DHT22;35450;44.518;7.466;2022-08-21T08:47:16;24.80;64.80
49549;DHT22;35450;44.518;7.466;2022-08-21T08:50:46;24.80;65.00
49549;DHT22;35450;44.518;7.466;2022-08-21T08:53:58;24.80;63.60
49549;DHT22;35450;44.518;7.466;2022-08-21T08:57:10;24.80;63.20
49549;DHT22;35450;44.518;7.466;2022-08-21T09:00:18;25.00;62.90
49549;DHT22;35450;44.518;7.466;2022-08-21T09:03:24;24.90;63.90
49549;DHT22;35450;44.518;7.466;2022-08-21T09:16:50;25.10;62.50
49549;DHT22;35450;44.518;7.466;2022-08-21T09:20:29;25.10;63.10
49549;DHT22;35450;44.518;7.466;2022-08-21T09:27:12;25.20;60.70
49549;DHT22;35450;44.518;7.466;2022-08-21T09:30:18;25.20;60.70
49549;DHT22;35450;44.518;7.466;2022-08-21T09:33:22;25.20;59.70
49549;DHT22;35450;44.518;7.466;2022-08-21T09:39:40;25.20;60.50
49549;DHT22;35450;44.518;7.466;2022-08-21T09:42:54;25.20;60.70
49549;DHT22;35450;44.518;7.466;2022-08-21T09:46:11;25.30;61.20
49549;DHT22;35450;44.518;7.466;2022-08-21T09:49:27;25.30;59.90
49549;DHT22;35450;44.518;7.466;2022-08-21T09:52:32;25.40;59.30
49549;DHT22;35450;44.518;7.466;2022-08-21T09:55:51;25.40;60.50
49549;DHT22;35450;44.518;7.466;2022-08-21T09:59:32;25.40;61.70
49549;DHT22;35450;44.518;7.466;2022-08-21T10:02:37;25.50;62.70
49549;DHT22;35450;44.518;7.466;2022-08-21T10:05:58;25.40;62.30
49549;DHT22;35450;44.518;7.466;2022-08-21T10:09:07;25.60;62.90
49549;DHT22;35450;44.518;7.466;2022-08-21T10:12:21;25.60;61.50
49549;DHT22;35450;44.518;7.466;2022-08-21T10:26:12;25.70;64.20
49549;DHT22;35450;44.518;7.466;2022-08-21T10:36:20;25.80;63.20
49549;DHT22;35450;44.518;7.466;2022-08-21T10:39:27;25.80;62.50
49549;DHT22;35450;44.518;7.466;2022-08-21T10:46:40;25.80;61.60
49549;DHT22;35450;44.518;7.466;2022-08-21T10:56:24;26.00;62.30
49549;DHT22;35450;44.518;7.466;2022-08-21T11:06:18;26.10;61.60
49549;DHT22;35450;44.518;7.466;2022-08-21T11:09:25;26.10;61.30
49549;DHT22;35450;44.518;7.466;2022-08-21T11:12:48;26.20;62.00
49549;DHT22;35450;44.518;7.466;2022-08-21T11:22:58;26.30;60.30
49549;DHT22;35450;44.518;7.466;2022-08-21T11:26:13;26.30;59.60
49549;DHT22;35450;44.518;7.466;2022-08-21T11:29:27;26.30;59.30
49549;DHT22;35450;44.518;7.466;2022-08-21T11:32:57;26.30;59.90
49549;DHT22;35450;44.518;7.466;2022-08-21T11:36:21;26.40;60.40
49549;DHT22;35450;44.518;7.466;2022-08-21T11:39:40;26.40;57.80
49549;DHT22;35450;44.518;7.466;2022-08-21T11:42:58;26.40;56.70
49549;DHT22;35450;44.518;7.466;2022-08-21T11:46:40;26.40;56.60
49549;DHT22;35450;44.518;7.466;2022-08-21T11:56:27;26.50;59.00
49549;DHT22;35450;44.518;7.466;2022-08-21T12:02:56;26.60;58.90
49549;DHT22;35450;44.518;7.466;2022-08-21T12:06:10;26.70;57.50
49549;DHT22;35450;44.518;7.466;2022-08-21T12:12:36;26.70;57.30
49549;DHT22;35450;44.518;7.466;2022-08-21T12:15:41;26.80;57.20
49549;DHT22;35450;44.518;7.466;2022-08-21T12:18:45;26.70;57.70
49549;DHT22;35450;44.518;7.466;2022-08-21T12:25:08;26.80;57.70
49549;DHT22;35450;44.518;7.466;2022-08-21T12:28:21;26.80;56.20
49549;DHT22;35450;44.518;7.466;2022-08-21T12:31:26;26.80;57.00
49549;DHT22;35450;44.518;7.466;2022-08-21T12:37:46;26.90;59.10
49549;DHT22;35450;44.518;7.466;2022-08-21T12:40:59;26.90;56.80
49549;DHT22;35450;44.518;7.466;2022-08-21T12:44:08;26.90;57.20
49549;DHT22;35450;44.518;7.466;2022-08-21T12:47:27;26.90;57.10
49549;DHT22;35450;44.518;7.466;2022-08-21T12:50:50;26.90;57.20
49549;DHT22;35450;44.518;7.466;2022-08-21T12:53:57;27.00;57.50
49549;DHT22;35450;44.518;7.466;2022-08-21T12:57:03;27.10;58.50
49549;DHT22;35450;44.518;7.466;2022-08-21T13:00:11;27.20;57.00
49549;DHT22;35450;44.518;7.466;2022-08-21T13:03:16;27.20;56.90
49549;DHT22;35450;44.518;7.466;2022-08-21T13:06:21;27.20;56.70
49549;DHT22;35450;44.518;7.466;2022-08-21T13:09:28;27.30;56.30
49549;DHT22;35450;44.518;7.466;2022-08-21T13:12:34;27.30;57.20
49549;DHT22;35450;44.518;7.466;2022-08-21T13:15:41;27.30;56.80
49549;DHT22;35450;44.518;7.466;2022-08-21T13:19:06;27.40;56.80
49549;DHT22;35450;44.518;7.466;2022-08-21T13:22:14;27.40;56.20
49549;DHT22;35450;44.518;7.466;2022-08-21T13:25:20;27.40;55.90
49549;DHT22;35450;44.518;7.466;2022-08-21T13:28:33;27.40;56.40
49549;DHT22;35450;44.518;7.466;2022-08-21T13:31:39;27.50;55.10
49549;DHT22;35450;44.518;7.466;2022-08-21T13:34:44;27.50;55.70
49549;DHT22;35450;44.518;7.466;2022-08-21T13:37:49;27.50;54.70
49549;DHT22;35450;44.518;7.466;2022-08-21T13:41:10;27.60;54.70
49549;DHT22;35450;44.518;7.466;2022-08-21T13:44:23;27.60;55.00
49549;DHT22;35450;44.518;7.466;2022-08-21T13:47:29;27.60;55.10
49549;DHT22;35450;44.518;7.466;2022-08-21T13:50:36;27.70;55.50
49549;DHT22;35450;44.518;7.466;2022-08-21T13:56:46;27.90;55.00
49549;DHT22;35450;44.518;7.466;2022-08-21T13:59:50;27.90;53.90
49549;DHT22;35450;44.518;7.466;2022-08-21T14:03:01;28.00;54.30
49549;DHT22;35450;44.518;7.466;2022-08-21T14:06:16;28.00;53.40
49549;DHT22;35450;44.518;7.466;2022-08-21T14:09:31;28.10;53.30
49549;DHT22;35450;44.518;7.466;2022-08-21T14:12:41;28.20;53.20
49549;DHT22;35450;44.518;7.466;2022-08-21T14:15:57;28.20;53.40
49549;DHT22;35450;44.518;7.466;2022-08-21T14:25:41;28.80;53.70
49549;DHT22;35450;44.518;7.466;2022-08-21T14:28:45;28.90;54.40
49549;DHT22;35450;44.518;7.466;2022-08-21T14:31:55;29.00;52.90
49549;DHT22;35450;44.518;7.466;2022-08-21T14:34:59;29.00;53.70
49549;DHT22;35450;44.518;7.466;2022-08-21T14:38:20;29.10;53.20
49549;DHT22;35450;44.518;7.466;2022-08-21T14:41:27;29.20;53.20
49549;DHT22;35450;44.518;7.466;2022-08-21T14:44:33;29.20;52.60
49549;DHT22;35450;44.518;7.466;2022-08-21T14:47:37;29.20;53.20
49549;DHT22;35450;44.518;7.466;2022-08-21T14:50:41;29.10;53.20
49549;DHT22;35450;44.518;7.466;2022-08-21T14:53:46;28.90;53.00
49549;DHT22;35450;44.518;7.466;2022-08-21T14:56:50;28.80;53.80
49549;DHT22;35450;44.518;7.466;2022-08-21T14:59:54;28.90;53.30
49549;DHT22;35450;44.518;7.466;2022-08-21T15:02:58;29.00;53.50
49549;DHT22;35450;44.518;7.466;2022-08-21T15:06:03;29.10;53.00
49549;DHT22;35450;44.518;7.466;2022-08-21T15:09:08;29.30;53.00
49549;DHT22;35450;44.518;7.466;2022-08-21T15:12:13;29.40;52.30
49549;DHT22;35450;44.518;7.466;2022-08-21T15:15:18;29.50;52.10
49549;DHT22;35450;44.518;7.466;2022-08-21T15:18:24;29.60;51.40
49549;DHT22;35450;44.518;7.466;2022-08-21T15:21:28;29.70;52.60
49549;DHT22;35450;44.518;7.466;2022-08-21T15:24:32;29.60;52.00
49549;DHT22;35450;44.518;7.466;2022-08-21T15:27:37;29.70;51.90
49549;DHT22;35450;44.518;7.466;2022-08-21T15:30:41;29.90;51.30
49549;DHT22;35450;44.518;7.466;2022-08-21T15:33:46;30.10;51.30
49549;DHT22;35450;44.518;7.466;2022-08-21T15:36:50;30.10;51.70
49549;DHT22;35450;44.518;7.466;2022-08-21T15:39:54;30.10;51.80
49549;DHT22;35450;44.518;7.466;2022-08-21T15:43:01;29.80;51.60
49549;DHT22;35450;44.518;7.466;2022-08-21T15:46:05;29.80;52.20
49549;DHT22;35450;44.518;7.466;2022-08-21T15:49:10;29.70;52.10
49549;DHT22;35450;44.518;7.466;2022-08-21T15:52:17;29.60;51.30
49549;DHT22;35450;44.518;7.466;2022-08-21T15:55:21;29.60;51.40
49549;DHT22;35450;44.518;7.466;2022-08-21T15:58:25;29.90;51.50
49549;DHT22;35450;44.518;7.466;2022-08-21T16:01:29;30.40;51.80
49549;DHT22;35450;44.518;7.466;2022-08-21T16:04:33;30.80;50.20
49549;DHT22;35450;44.518;7.466;2022-08-21T16:07:37;30.30;51.60
49549;DHT22;35450;44.518;7.466;2022-08-21T16:10:42;29.70;51.20
49549;DHT22;35450;44.518;7.466;2022-08-21T16:13:46;29.40;52.20
49549;DHT22;35450;44.518;7.466;2022-08-21T16:16:51;29.10;52.40
49549;DHT22;35450;44.518;7.466;2022-08-21T16:19:56;29.00;52.60
49549;DHT22;35450;44.518;7.466;2022-08-21T16:23:01;28.80;53.30
49549;DHT22;35450;44.518;7.466;2022-08-21T16:26:06;28.90;54.60
49549;DHT22;35450;44.518;7.466;2022-08-21T16:29:10;28.90;53.60
49549;DHT22;35450;44.518;7.466;2022-08-21T16:32:15;29.00;54.70
49549;DHT22;35450;44.518;7.466;2022-08-21T16:35:21;29.20;55.50
49549;DHT22;35450;44.518;7.466;2022-08-21T16:38:26;29.20;54.30
49549;DHT22;35450;44.518;7.466;2022-08-21T16:41:33;29.20;53.80
49549;DHT22;35450;44.518;7.466;2022-08-21T16:44:37;29.10;55.10
49549;DHT22;35450;44.518;7.466;2022-08-21T16:47:41;29.00;54.90
49549;DHT22;35450;44.518;7.466;2022-08-21T16:50:47;28.90;55.40
49549;DHT22;35450;44.518;7.466;2022-08-21T16:53:52;28.90;56.30
49549;DHT22;35450;44.518;7.466;2022-08-21T16:56:57;28.80;55.80
49549;DHT22;35450;44.518;7.466;2022-08-21T17:00:05;28.80;55.70
49549;DHT22;35450;44.518;7.466;2022-08-21T17:03:15;28.80;56.90
49549;DHT22;35450;44.518;7.466;2022-08-21T17:06:21;28.70;56.50
49549;DHT22;35450;44.518;7.466;2022-08-21T17:09:25;28.70;57.20
49549;DHT22;35450;44.518;7.466;2022-08-21T17:12:29;28.70;58.00
49549;DHT22;35450;44.518;7.466;2022-08-21T17:15:36;28.70;58.10
49549;DHT22;35450;44.518;7.466;2022-08-21T17:18:40;28.60;58.40
49549;DHT22;35450;44.518;7.466;2022-08-21T17:21:44;28.50;58.50
49549;DHT22;35450;44.518;7.466;2022-08-21T17:24:48;28.50;58.80
49549;DHT22;35450;44.518;7.466;2022-08-21T17:27:52;28.40;58.90
49549;DHT22;35450;44.518;7.466;2022-08-21T17:30:58;28.30;59.00
49549;DHT22;35450;44.518;7.466;2022-08-21T17:34:05;28.30;59.90
49549;DHT22;35450;44.518;7.466;2022-08-21T17:37:09;28.20;60.20
49549;DHT22;35450;44.518;7.466;2022-08-21T17:40:14;28.10;60.60
49549;DHT22;35450;44.518;7.466;2022-08-21T17:43:18;28.00;61.10
49549;DHT22;35450;44.518;7.466;2022-08-21T17:46:27;27.90;61.00
49549;DHT22;35450;44.518;7.466;2022-08-21T17:49:31;27.80;60.70
49549;DHT22;35450;44.518;7.466;2022-08-21T17:52:35;27.70;60.60
49549;DHT22;35450;44.518;7.466;2022-08-21T17:55:40;27.70;60.80
49549;DHT22;35450;44.518;7.466;2022-08-21T17:58:49;27.60;60.70
49549;DHT22;35450;44.518;7.466;2022-08-21T18:01:54;27.40;61.30
49549;DHT22;35450;44.518;7.466;2022-08-21T18:05:06;27.30;61.00
49549;DHT22;35450;44.518;7.466;2022-08-21T18:08:12;27.30;61.20
49549;DHT22;35450;44.518;7.466;2022-08-21T18:11:25;27.10;61.40
49549;DHT22;35450;44.518;7.466;2022-08-21T18:14:33;27.00;61.60
49549;DHT22;35450;44.518;7.466;2022-08-21T18:17:40;26.90;61.70
49549;DHT22;35450;44.518;7.466;2022-08-21T18:20:44;26.80;61.90
49549;DHT22;35450;44.518;7.466;2022-08-21T18:23:48;26.70;62.30
49549;DHT22;35450;44.518;7.466;2022-08-21T18:26:53;26.50;62.70
49549;DHT22;35450;44.518;7.466;2022-08-21T18:29:58;26.50;62.70
49549;DHT22;35450;44.518;7.466;2022-08-21T18:33:03;26.30;62.40
49549;DHT22;35450;44.518;7.466;2022-08-21T18:36:07;26.30;62.90
49549;DHT22;35450;44.518;7.466;2022-08-21T18:39:11;26.10;63.10
49549;DHT22;35450;44.518;7.466;2022-08-21T18:42:16;26.10;63.40
49549;DHT22;35450;44.518;7.466;2022-08-21T18:45:20;26.10;63.60
49549;DHT22;35450;44.518;7.466;2022-08-21T18:48:24;26.10;63.40
49549;DHT22;35450;44.518;7.466;2022-08-21T18:51:28;26.00;65.30
49549;DHT22;35450;44.518;7.466;2022-08-21T18:54:32;25.90;64.70
49549;DHT22;35450;44.518;7.466;2022-08-21T18:57:36;25.80;63.40
49549;DHT22;35450;44.518;7.466;2022-08-21T19:00:47;25.80;63.10
49549;DHT22;35450;44.518;7.466;2022-08-21T19:03:52;25.70;63.10
49549;DHT22;35450;44.518;7.466;2022-08-21T19:06:56;25.70;63.50
49549;DHT22;35450;44.518;7.466;2022-08-21T19:10:00;25.60;63.50
49549;DHT22;35450;44.518;7.466;2022-08-21T19:13:05;25.60;63.70
49549;DHT22;35450;44.518;7.466;2022-08-21T19:16:09;25.60;63.50
49549;DHT22;35450;44.518;7.466;2022-08-21T19:19:14;25.50;63.30
49549;DHT22;35450;44.518;7.466;2022-08-21T19:22:18;25.60;63.50
49549;DHT22;35450;44.518;7.466;2022-08-21T19:25:24;25.50;63.80
49549;DHT22;35450;44.518;7.466;2022-08-21T19:28:31;25.40;63.60
49549;DHT22;35450;44.518;7.466;2022-08-21T19:31:41;25.40;63.60
49549;DHT22;35450;44.518;7.466;2022-08-21T19:34:46;25.40;63.50
49549;DHT22;35450;44.518;7.466;2022-08-21T19:37:52;25.40;63.50
49549;DHT22;35450;44.518;7.466;2022-08-21T19:40:56;25.30;63.70
49549;DHT22;35450;44.518;7.466;2022-08-21T19:44:04;25.20;63.80
49549;DHT22;35450;44.518;7.466;2022-08-21T19:47:18;25.20;64.00
49549;DHT22;35450;44.518;7.466;2022-08-21T19:50:23;25.10;64.00
49549;DHT22;35450;44.518;7.466;2022-08-21T19:53:27;25.10;64.50
49549;DHT22;35450;44.518;7.466;2022-08-21T19:56:32;25.00;64.90
49549;DHT22;35450;44.518;7.466;2022-08-21T19:59:38;25.00;63.30
49549;DHT22;35450;44.518;7.466;2022-08-21T20:02:42;25.00;63.40
49549;DHT22;35450;44.518;7.466;2022-08-21T20:05:46;24.90;63.90
49549;DHT22;35450;44.518;7.466;2022-08-21T20:08:52;24.90;64.50
49549;DHT22;35450;44.518;7.466;2022-08-21T20:12:02;24.90;64.60
49549;DHT22;35450;44.518;7.466;2022-08-21T20:15:07;24.90;65.00
49549;DHT22;35450;44.518;7.466;2022-08-21T20:18:12;24.90;64.40
49549;DHT22;35450;44.518;7.466;2022-08-21T20:21:15;24.90;64.40
49549;DHT22;35450;44.518;7.466;2022-08-21T20:24:19;24.90;65.60
49549;DHT22;35450;44.518;7.466;2022-08-21T20:27:25;24.90;66.60
49549;DHT22;35450;44.518;7.466;2022-08-21T20:30:30;24.90;68.10
49549;DHT22;35450;44.518;7.466;2022-08-21T20:33:36;24.80;69.60
49549;DHT22;35450;44.518;7.466;2022-08-21T20:36:40;24.70;69.90
49549;DHT22;35450;44.518;7.466;2022-08-21T20:39:44;24.70;68.30
49549;DHT22;35450;44.518;7.466;2022-08-21T20:42:51;24.80;67.50
49549;DHT22;35450;44.518;7.466;2022-08-21T20:45:56;24.80;68.00
49549;DHT22;35450;44.518;7.466;2022-08-21T20:49:01;24.70;69.70
49549;DHT22;35450;44.518;7.466;2022-08-21T20:52:05;24.80;69.50
49549;DHT22;35450;44.518;7.466;2022-08-21T20:55:14;24.80;70.00
49549;DHT22;35450;44.518;7.466;2022-08-21T20:58:28;24.80;69.50
49549;DHT22;35450;44.518;7.466;2022-08-21T21:01:35;24.70;70.10
49549;DHT22;35450;44.518;7.466;2022-08-21T21:08:16;24.70;71.00
49549;DHT22;35450;44.518;7.466;2022-08-21T21:11:36;24.60;70.80